Time;durP1;ratioP1;P1;durP2;ratioP2;P2;SDS_P1;SDS_P2;PMS_P1;PMS_P2;Temp;Humidity;BMP_temperature;BMP_pressure;BME280_temperature;BME280_humidity;BME280_pressure;Samples;Min_cycle;Max_cycle;Signal;HPM_P1;HPM_P2
2022/09/26 00:01:45;;;;;;;1.98;1.12;;;;;;;;;;1829807;77;26802;-58
2022/09/26 00:04:19;;;;;;;1.30;1.00;;;;;;;;;;1829860;77;27299;-58
2022/09/26 00:06:47;;;;;;;1.12;1.00;;;;;;;;;;1832000;77;26437;-57
2022/09/26 00:09:15;;;;;;;1.30;0.93;;;;;;;;;;1838923;76;26257;-54
2022/09/26 00:11:43;;;;;;;1.17;0.98;;;;;;;;;;1844087;76;26735;-56
2022/09/26 00:14:15;;;;;;;2.62;1.32;;;;;;;;;;1856298;77;26292;-54
2022/09/26 00:16:43;;;;;;;0.98;0.98;;;;;;;;;;1854601;76;26299;-57
2022/09/26 00:19:10;;;;;;;1.10;1.10;;;;;;;;;;1857021;77;26201;-54
2022/09/26 00:21:37;;;;;;;1.00;1.00;;;;;;;;;;1845685;76;26275;-54
2022/09/26 00:24:05;;;;;;;3.47;1.35;;;;;;;;;;1861037;77;26315;-54
2022/09/26 00:26:33;;;;;;;1.17;1.17;;;;;;;;;;1862316;77;26255;-55
2022/09/26 00:29:03;;;;;;;1.22;1.00;;;;;;;;;;1860578;77;26260;-56
2022/09/26 00:31:32;;;;;;;0.90;0.90;;;;;;;;;;1861942;77;26770;-55
2022/09/26 00:34:00;;;;;;;1.95;0.90;;;;;;;;;;1862202;77;26257;-56
2022/09/26 00:36:27;;;;;;;2.05;1.10;;;;;;;;;;1857633;77;26329;-55
2022/09/26 00:38:55;;;;;;;1.30;1.10;;;;;;;;;;1836916;77;26256;-57
2022/09/26 00:41:23;;;;;;;1.20;1.10;;;;;;;;;;1832479;77;26758;-54
2022/09/26 00:43:52;;;;;;;1.77;1.00;;;;;;;;;;1831505;77;26757;-54
2022/09/26 00:46:32;;;;;;;1.12;1.10;;;;;;;;;;1840459;77;26257;-56
2022/09/26 00:49:04;;;;;;;0.90;0.90;;;;;;;;;;1861843;77;26456;-55
2022/09/26 00:51:33;;;;;;;2.25;1.02;;;;;;;;;;1862619;77;26270;-51
2022/09/26 00:54:01;;;;;;;0.90;0.90;;;;;;;;;;1861777;76;26488;-54
2022/09/26 00:56:33;;;;;;;0.98;0.98;;;;;;;;;;1855815;77;26244;-56
2022/09/26 00:59:01;;;;;;;0.98;0.90;;;;;;;;;;1862044;76;26771;-56
2022/09/26 01:01:29;;;;;;;1.12;1.10;;;;;;;;;;1862206;76;26729;-58
2022/09/26 01:03:57;;;;;;;1.05;1.00;;;;;;;;;;1862285;77;26680;-57
2022/09/26 01:06:24;;;;;;;1.87;0.90;;;;;;;;;;1861554;77;26682;-53
2022/09/26 01:08:53;;;;;;;1.20;1.10;;;;;;;;;;1862301;77;26261;-54
2022/09/26 01:11:20;;;;;;;1.32;1.00;;;;;;;;;;1861956;76;26282;-57
2022/09/26 01:13:49;;;;;;;1.65;0.90;;;;;;;;;;1849011;77;26836;-57
2022/09/26 01:16:16;;;;;;;1.12;0.98;;;;;;;;;;1833696;77;26197;-61
2022/09/26 01:18:44;;;;;;;1.15;1.05;;;;;;;;;;1852978;77;26839;-53
2022/09/26 01:21:24;;;;;;;0.75;0.75;;;;;;;;;;1848365;77;26295;-59
2022/09/26 01:24:10;;;;;;;1.00;1.00;;;;;;;;;;1822258;77;26404;-53
2022/09/26 01:26:47;;;;;;;2.08;1.02;;;;;;;;;;1844458;77;26244;-54
2022/09/26 01:29:22;;;;;;;1.22;0.93;;;;;;;;;;1861670;77;26233;-54
2022/09/26 01:35:02;;;;;;;0.93;0.93;;;;;;;;;;1861707;77;26351;-55
2022/09/26 01:37:31;;;;;;;1.10;1.00;;;;;;;;;;1852360;77;26318;-54
2022/09/26 01:40:01;;;;;;;0.93;0.80;;;;;;;;;;1853163;77;26331;-55
2022/09/26 01:42:30;;;;;;;1.47;0.88;;;;;;;;;;1835950;76;26287;-55
2022/09/26 01:45:11;;;;;;;0.98;0.98;;;;;;;;;;1831103;77;26342;-56
2022/09/26 01:47:39;;;;;;;1.22;0.90;;;;;;;;;;1831458;77;27517;-57
2022/09/26 01:50:08;;;;;;;0.90;0.90;;;;;;;;;;1830805;77;26800;-56
2022/09/26 01:52:40;;;;;;;0.85;0.85;;;;;;;;;;1830727;77;26304;-58
2022/09/26 01:55:09;;;;;;;0.90;0.90;;;;;;;;;;1830827;77;26794;-56
2022/09/26 01:57:41;;;;;;;0.90;0.90;;;;;;;;;;1830605;77;26196;-53
2022/09/26 02:00:11;;;;;;;1.75;0.75;;;;;;;;;;1829689;77;26761;-55
2022/09/26 02:02:39;;;;;;;1.22;0.80;;;;;;;;;;1830922;77;26368;-54
2022/09/26 02:05:08;;;;;;;2.08;1.00;;;;;;;;;;1834126;75;26322;-54
2022/09/26 02:07:37;;;;;;;1.37;0.80;;;;;;;;;;1857642;76;26244;-55
2022/09/26 02:10:06;;;;;;;1.20;0.75;;;;;;;;;;1831075;77;26256;-53
2022/09/26 02:12:38;;;;;;;0.80;0.80;;;;;;;;;;1830266;77;26761;-58
2022/09/26 02:15:05;;;;;;;0.80;0.80;;;;;;;;;;1829244;77;26308;-54
2022/09/26 02:17:34;;;;;;;1.07;0.90;;;;;;;;;;1838370;77;26252;-55
2022/09/26 02:20:18;;;;;;;0.70;0.70;;;;;;;;;;1843024;76;26330;-52
2022/09/26 02:22:45;;;;;;;0.88;0.75;;;;;;;;;;1811599;77;26288;-52
2022/09/26 02:25:13;;;;;;;1.17;0.80;;;;;;;;;;1810458;78;26847;-54
2022/09/26 02:27:40;;;;;;;0.80;0.80;;;;;;;;;;1806591;77;26269;-58
2022/09/26 02:30:08;;;;;;;3.02;1.20;;;;;;;;;;1809230;78;26370;-56
2022/09/26 02:32:36;;;;;;;0.88;0.88;;;;;;;;;;1807497;78;26268;-52
2022/09/26 02:36:07;;;;;;;0.70;0.70;;;;;;;;;;1808930;78;26285;-50
2022/09/26 02:37:42;;;;;;;0.80;0.80;;;;;;;;;;1802248;78;26332;-56
2022/09/26 02:40:10;;;;;;;1.57;0.70;;;;;;;;;;1821194;77;26260;-57
2022/09/26 02:42:39;;;;;;;0.70;0.70;;;;;;;;;;1825542;78;26410;-52
2022/09/26 02:45:24;;;;;;;1.07;0.70;;;;;;;;;;1821683;77;26296;-58
2022/09/26 02:47:53;;;;;;;0.80;0.80;;;;;;;;;;1824476;78;26273;-50
2022/09/26 02:50:24;;;;;;;0.78;0.78;;;;;;;;;;1817553;77;26273;-56
2022/09/26 02:52:55;;;;;;;0.90;0.80;;;;;;;;;;1823045;78;26804;-53
2022/09/26 02:55:30;;;;;;;0.70;0.70;;;;;;;;;;1816714;77;26281;-51
2022/09/26 02:58:02;;;;;;;0.75;0.70;;;;;;;;;;1824294;77;26346;-56
2022/09/26 03:00:31;;;;;;;0.80;0.80;;;;;;;;;;1815418;78;26269;-55
2022/09/26 03:03:03;;;;;;;0.80;0.80;;;;;;;;;;1824286;78;26567;-58
2022/09/26 03:05:32;;;;;;;0.65;0.65;;;;;;;;;;1817313;77;26261;-55
2022/09/26 03:08:01;;;;;;;0.70;0.70;;;;;;;;;;1814673;78;26340;-53
2022/09/26 03:10:29;;;;;;;0.70;0.70;;;;;;;;;;1810545;77;26367;-57
2022/09/26 03:12:58;;;;;;;0.80;0.80;;;;;;;;;;1818856;77;26289;-58
2022/09/26 03:15:27;;;;;;;0.80;0.80;;;;;;;;;;1817407;77;26351;-53
2022/09/26 03:17:54;;;;;;;0.82;0.82;;;;;;;;;;1827302;77;26298;-55
2022/09/26 03:20:23;;;;;;;1.55;0.80;;;;;;;;;;1807965;77;26257;-57
2022/09/26 03:22:51;;;;;;;0.65;0.65;;;;;;;;;;1849963;77;26355;-55
2022/09/26 03:25:20;;;;;;;2.22;1.00;;;;;;;;;;1868956;75;26807;-55
2022/09/26 03:27:47;;;;;;;1.57;0.90;;;;;;;;;;1841097;77;26330;-57
2022/09/26 03:30:16;;;;;;;1.05;0.80;;;;;;;;;;1831060;77;26849;-56
2022/09/26 03:32:43;;;;;;;3.42;1.00;;;;;;;;;;1829810;77;26341;-56
2022/09/26 03:35:10;;;;;;;1.25;0.80;;;;;;;;;;1858220;77;26261;-56
2022/09/26 03:37:37;;;;;;;1.55;0.90;;;;;;;;;;1868276;75;26363;-57
2022/09/26 03:40:06;;;;;;;3.33;0.80;;;;;;;;;;1857300;77;26535;-56
2022/09/26 03:42:33;;;;;;;1.72;0.80;;;;;;;;;;1834122;77;26806;-53
2022/09/26 03:45:02;;;;;;;1.85;0.90;;;;;;;;;;1834489;77;26316;-58
2022/09/26 03:47:29;;;;;;;0.80;0.80;;;;;;;;;;1830862;77;26263;-53
2022/09/26 03:49:56;;;;;;;1.10;1.00;;;;;;;;;;1829547;77;26755;-56
2022/09/26 03:52:24;;;;;;;1.20;0.72;;;;;;;;;;1829947;77;27369;-57
2022/09/26 03:54:52;;;;;;;2.50;1.00;;;;;;;;;;1855336;77;26247;-54
2022/09/26 03:57:19;;;;;;;0.80;0.80;;;;;;;;;;1857916;77;26671;-57
2022/09/26 03:59:47;;;;;;;1.20;0.85;;;;;;;;;;1858945;77;26307;-58
2022/09/26 04:02:15;;;;;;;0.80;0.80;;;;;;;;;;1839678;77;26272;-57
2022/09/26 04:04:43;;;;;;;0.95;0.68;;;;;;;;;;1831562;75;26334;-60
2022/09/26 04:07:10;;;;;;;3.50;1.00;;;;;;;;;;1852116;76;26341;-54
2022/09/26 04:09:37;;;;;;;1.85;0.70;;;;;;;;;;1838099;75;26229;-58
2022/09/26 04:12:04;;;;;;;1.20;0.80;;;;;;;;;;1847974;76;26244;-57
2022/09/26 04:14:32;;;;;;;1.25;0.90;;;;;;;;;;1831040;77;26293;-54
2022/09/26 04:16:59;;;;;;;0.70;0.70;;;;;;;;;;1830980;77;26288;-52
2022/09/26 04:19:27;;;;;;;1.00;0.90;;;;;;;;;;1831487;77;26303;-49
2022/09/26 04:21:54;;;;;;;0.90;0.90;;;;;;;;;;1846086;75;26753;-57
2022/09/26 04:24:21;;;;;;;1.17;0.80;;;;;;;;;;1872228;76;26899;-52
2022/09/26 04:26:49;;;;;;;1.65;0.90;;;;;;;;;;1842318;75;26235;-55
2022/09/26 04:29:16;;;;;;;0.98;0.90;;;;;;;;;;1831875;77;26361;-52
2022/09/26 04:31:44;;;;;;;1.37;0.90;;;;;;;;;;1831814;77;26247;-55
2022/09/26 04:34:11;;;;;;;2.45;0.88;;;;;;;;;;1831656;77;26333;-52
2022/09/26 04:36:38;;;;;;;1.85;0.60;;;;;;;;;;1833354;75;26252;-57
2022/09/26 04:39:06;;;;;;;1.85;0.78;;;;;;;;;;1841107;77;26318;-54
2022/09/26 04:41:33;;;;;;;1.37;0.70;;;;;;;;;;1836336;77;26259;-58
2022/09/26 04:44:01;;;;;;;2.87;0.80;;;;;;;;;;1835000;77;26280;-55
2022/09/26 04:46:28;;;;;;;0.95;0.70;;;;;;;;;;1831599;77;26263;-54
2022/09/26 04:48:56;;;;;;;1.02;0.90;;;;;;;;;;1851154;77;26369;-50
2022/09/26 04:51:24;;;;;;;0.93;0.72;;;;;;;;;;1831564;77;26660;-55
2022/09/26 04:53:52;;;;;;;1.05;0.80;;;;;;;;;;1840384;77;26256;-52
2022/09/26 04:56:20;;;;;;;2.50;0.80;;;;;;;;;;1834382;77;27304;-53
2022/09/26 04:58:47;;;;;;;0.95;0.90;;;;;;;;;;1838888;76;26414;-53
2022/09/26 05:01:15;;;;;;;5.15;0.90;;;;;;;;;;1852176;76;26323;-59
2022/09/26 05:03:43;;;;;;;4.97;1.10;;;;;;;;;;1850493;75;26306;-54
2022/09/26 05:06:11;;;;;;;5.37;0.80;;;;;;;;;;1844477;76;26249;-57
2022/09/26 05:08:45;;;;;;;1.87;0.75;;;;;;;;;;1832531;77;26256;-58
2022/09/26 05:11:11;;;;;;;2.47;0.80;;;;;;;;;;1839006;77;26267;-56
2022/09/26 05:13:39;;;;;;;0.88;0.80;;;;;;;;;;1832208;77;26260;-55
2022/09/26 05:16:07;;;;;;;1.65;1.07;;;;;;;;;;1834582;77;27369;-53
2022/09/26 05:18:35;;;;;;;1.10;1.00;;;;;;;;;;1839482;76;26740;-58
2022/09/26 05:21:02;;;;;;;1.37;0.93;;;;;;;;;;1844366;77;26269;-54
2022/09/26 05:26:19;;;;;;;3.62;1.10;;;;;;;;;;1844148;77;26748;-54
2022/09/26 05:28:48;;;;;;;1.50;0.90;;;;;;;;;;1832622;77;26209;-54
2022/09/26 05:31:16;;;;;;;1.25;1.05;;;;;;;;;;1849593;75;26244;-55
2022/09/26 05:33:43;;;;;;;4.65;1.00;;;;;;;;;;1831534;77;26192;-54
2022/09/26 05:36:11;;;;;;;1.50;1.37;;;;;;;;;;1849623;76;26792;-57
2022/09/26 05:38:39;;;;;;;1.30;0.98;;;;;;;;;;1838102;77;26252;-55
2022/09/26 05:41:06;;;;;;;1.25;1.10;;;;;;;;;;1831636;77;27483;-54
2022/09/26 05:43:34;;;;;;;2.10;1.00;;;;;;;;;;1831648;77;26224;-56
2022/09/26 05:46:03;;;;;;;3.70;0.90;;;;;;;;;;1836825;75;26253;-55
2022/09/26 05:48:31;;;;;;;2.45;1.10;;;;;;;;;;1831602;77;26268;-51
2022/09/26 05:51:08;;;;;;;2.35;1.00;;;;;;;;;;1851915;75;26506;-59
2022/09/26 05:53:34;;;;;;;4.80;1.30;;;;;;;;;;1831853;77;26302;-61
2022/09/26 05:56:03;;;;;;;3.47;1.02;;;;;;;;;;1832018;77;26708;-58
2022/09/26 05:58:31;;;;;;;1.45;1.00;;;;;;;;;;1831937;77;26304;-57
2022/09/26 06:01:05;;;;;;;3.45;1.00;;;;;;;;;;1831732;77;26280;-59
2022/09/26 06:03:36;;;;;;;2.20;1.10;;;;;;;;;;1831817;77;26867;-60
2022/09/26 06:06:04;;;;;;;5.80;1.70;;;;;;;;;;1834090;77;26309;-60
2022/09/26 06:08:32;;;;;;;2.87;1.27;;;;;;;;;;1841172;76;26262;-60
2022/09/26 06:11:03;;;;;;;7.78;1.30;;;;;;;;;;1846729;75;26268;-59
2022/09/26 06:13:30;;;;;;;12.15;1.32;;;;;;;;;;1845689;75;26237;-61
2022/09/26 06:16:05;;;;;;;2.80;1.00;;;;;;;;;;1851335;77;26350;-60
2022/09/26 06:18:34;;;;;;;1.72;1.10;;;;;;;;;;1835829;77;26269;-60
2022/09/26 06:21:04;;;;;;;2.12;1.40;;;;;;;;;;1844411;76;26321;-60
2022/09/26 06:23:33;;;;;;;2.70;1.20;;;;;;;;;;1836302;75;26330;-60
2022/09/26 06:26:02;;;;;;;5.28;1.20;;;;;;;;;;1831066;77;26267;-62
2022/09/26 06:28:30;;;;;;;3.70;1.00;;;;;;;;;;1837558;77;26272;-59
2022/09/26 06:30:57;;;;;;;2.62;1.10;;;;;;;;;;1838777;77;27644;-59
2022/09/26 06:33:24;;;;;;;2.30;0.93;;;;;;;;;;1837955;77;26247;-63
2022/09/26 06:36:05;;;;;;;1.47;0.98;;;;;;;;;;1832545;77;26319;-64
2022/09/26 06:38:32;;;;;;;2.05;1.00;;;;;;;;;;1832982;77;26244;-62
2022/09/26 06:41:00;;;;;;;4.75;1.15;;;;;;;;;;1831049;77;26789;-62
2022/09/26 06:43:27;;;;;;;2.65;1.35;;;;;;;;;;1831465;77;26260;-61
2022/09/26 06:45:55;;;;;;;2.12;0.93;;;;;;;;;;1831104;77;26358;-60
2022/09/26 06:48:23;;;;;;;2.08;1.10;;;;;;;;;;1830904;77;26525;-57
2022/09/26 06:50:52;;;;;;;2.20;0.80;;;;;;;;;;1830627;77;26315;-57
2022/09/26 06:53:20;;;;;;;0.93;0.93;;;;;;;;;;1830364;76;26291;-60
2022/09/26 06:55:47;;;;;;;2.20;0.95;;;;;;;;;;1839054;75;26759;-59
2022/09/26 06:58:15;;;;;;;2.60;1.15;;;;;;;;;;1839286;76;26271;-60
2022/09/26 07:00:42;;;;;;;1.82;1.15;;;;;;;;;;1831297;77;26341;-59
2022/09/26 07:03:12;;;;;;;1.67;0.90;;;;;;;;;;1833744;77;26283;-59
2022/09/26 07:05:39;;;;;;;1.60;0.80;;;;;;;;;;1839812;77;26319;-60
2022/09/26 07:08:06;;;;;;;1.15;1.00;;;;;;;;;;1847482;76;26255;-60
2022/09/26 07:10:34;;;;;;;4.03;0.98;;;;;;;;;;1841018;77;26280;-60
2022/09/26 07:13:03;;;;;;;1.98;1.10;;;;;;;;;;1835990;77;26852;-59
2022/09/26 07:15:32;;;;;;;2.60;1.00;;;;;;;;;;1835987;77;26257;-68
2022/09/26 07:18:05;;;;;;;1.12;0.90;;;;;;;;;;1829132;77;26328;-65
2022/09/26 07:20:33;;;;;;;0.90;0.90;;;;;;;;;;1832053;77;26358;-67
2022/09/26 07:23:01;;;;;;;0.75;0.75;;;;;;;;;;1829112;77;26295;-63
2022/09/26 07:25:30;;;;;;;2.17;0.90;;;;;;;;;;1830769;76;26666;-64
2022/09/26 07:27:57;;;;;;;1.07;1.00;;;;;;;;;;1831219;77;26418;-63
2022/09/26 07:30:25;;;;;;;1.87;0.88;;;;;;;;;;1834590;77;26373;-71
2022/09/26 07:32:53;;;;;;;0.90;0.90;;;;;;;;;;1831026;77;26274;-68
2022/09/26 07:35:23;;;;;;;1.10;0.88;;;;;;;;;;1830670;77;26343;-70
2022/09/26 07:37:51;;;;;;;0.88;0.88;;;;;;;;;;1840301;76;26304;-64
2022/09/26 07:40:19;;;;;;;0.85;0.80;;;;;;;;;;1842893;76;26284;-67
2022/09/26 07:42:47;;;;;;;0.85;0.85;;;;;;;;;;1789877;77;26362;-66
2022/09/26 07:45:14;;;;;;;1.32;1.00;;;;;;;;;;1765116;80;26235;-69
2022/09/26 07:50:11;;;;;;;0.70;0.70;;;;;;;;;;1736040;80;26324;-65
2022/09/26 07:52:39;;;;;;;1.10;0.88;;;;;;;;;;1760132;80;26792;-65
2022/09/26 07:55:07;;;;;;;0.80;0.80;;;;;;;;;;1756202;80;26276;-64
2022/09/26 07:57:34;;;;;;;1.17;0.80;;;;;;;;;;1762460;80;26246;-63
2022/09/26 08:00:11;;;;;;;0.75;0.62;;;;;;;;;;1754832;80;26358;-63
2022/09/26 08:02:38;;;;;;;0.90;0.90;;;;;;;;;;1766960;80;26267;-64
2022/09/26 08:05:06;;;;;;;1.25;0.80;;;;;;;;;;1757701;80;26317;-65
2022/09/26 08:07:34;;;;;;;0.90;0.70;;;;;;;;;;1767460;79;26408;-66
2022/09/26 08:10:02;;;;;;;0.80;0.80;;;;;;;;;;1755603;79;26286;-65
2022/09/26 08:12:30;;;;;;;0.82;0.82;;;;;;;;;;1763989;79;26484;-66
2022/09/26 08:14:58;;;;;;;0.80;0.80;;;;;;;;;;1761730;79;26324;-65
2022/09/26 08:17:25;;;;;;;0.70;0.70;;;;;;;;;;1756763;79;26256;-63
2022/09/26 08:19:52;;;;;;;0.80;0.80;;;;;;;;;;1771485;79;26673;-60
2022/09/26 08:22:19;;;;;;;0.75;0.75;;;;;;;;;;1761947;80;26764;-63
2022/09/26 08:24:49;;;;;;;0.75;0.75;;;;;;;;;;1770816;79;26882;-64
2022/09/26 08:27:17;;;;;;;0.78;0.78;;;;;;;;;;1773331;80;26807;-62
2022/09/26 08:29:49;;;;;;;0.80;0.80;;;;;;;;;;1773705;80;26739;-60
2022/09/26 08:32:13;;;;;;;0.62;0.62;;;;;;;;;;1772414;80;26714;-65
2022/09/26 08:34:40;;;;;;;0.80;0.80;;;;;;;;;;1772436;80;26316;-63
2022/09/26 08:37:08;;;;;;;0.98;0.70;;;;;;;;;;1784514;78;26294;-64
2022/09/26 08:39:35;;;;;;;0.80;0.80;;;;;;;;;;1774833;80;26833;-64
2022/09/26 08:42:14;;;;;;;0.70;0.70;;;;;;;;;;1788661;80;26577;-66
2022/09/26 08:44:51;;;;;;;0.60;0.60;;;;;;;;;;1782432;80;26428;-64
2022/09/26 08:47:40;;;;;;;0.90;0.78;;;;;;;;;;1792385;80;26423;-62
2022/09/26 08:50:20;;;;;;;0.70;0.70;;;;;;;;;;1770967;78;26793;-62
2022/09/26 08:52:57;;;;;;;0.65;0.65;;;;;;;;;;1777099;78;26300;-64
2022/09/26 08:55:26;;;;;;;0.70;0.70;;;;;;;;;;1798081;78;26325;-62
2022/09/26 08:58:04;;;;;;;0.70;0.70;;;;;;;;;;1778597;78;26885;-61
2022/09/26 09:00:33;;;;;;;0.72;0.72;;;;;;;;;;1777055;78;26751;-62
2022/09/26 09:03:02;;;;;;;0.90;0.90;;;;;;;;;;1786151;80;26291;-62
2022/09/26 09:05:37;;;;;;;0.78;0.78;;;;;;;;;;1791481;80;26367;-62
2022/09/26 09:08:00;;;;;;;0.90;0.90;;;;;;;;;;1787187;78;26381;-62
2022/09/26 09:10:41;;;;;;;0.90;0.90;;;;;;;;;;1783712;78;26798;-62
2022/09/26 09:13:10;;;;;;;0.70;0.70;;;;;;;;;;1779639;78;26735;-61
2022/09/26 09:15:42;;;;;;;2.47;0.80;;;;;;;;;;1767322;80;26690;-61
2022/09/26 09:18:29;;;;;;;0.95;0.82;;;;;;;;;;1789142;78;27418;-61
2022/09/26 09:20:58;;;;;;;0.70;0.70;;;;;;;;;;1791916;78;26269;-62
2022/09/26 09:23:45;;;;;;;1.00;1.00;;;;;;;;;;1789756;78;26288;-62
2022/09/26 09:26:32;;;;;;;1.55;0.90;;;;;;;;;;1783507;78;26362;-62
2022/09/26 09:29:13;;;;;;;2.33;1.00;;;;;;;;;;1790515;80;26827;-62
2022/09/26 09:31:42;;;;;;;0.90;0.90;;;;;;;;;;1796125;80;26807;-61
2022/09/26 09:34:11;;;;;;;1.35;0.88;;;;;;;;;;1794713;78;26347;-62
2022/09/26 09:36:49;;;;;;;5.62;1.35;;;;;;;;;;1787665;78;26395;-71
2022/09/26 09:39:34;;;;;;;4.78;0.90;;;;;;;;;;1779502;80;26327;-66
2022/09/26 09:42:03;;;;;;;1.00;0.80;;;;;;;;;;1789293;80;26321;-63
2022/09/26 09:44:44;;;;;;;2.05;1.00;;;;;;;;;;1761439;80;28459;-64
2022/09/26 09:47:13;;;;;;;2.05;0.80;;;;;;;;;;1774943;80;26289;-62
2022/09/26 09:49:41;;;;;;;1.70;0.70;;;;;;;;;;1779035;80;26370;-65
2022/09/26 09:52:26;;;;;;;1.00;0.80;;;;;;;;;;1771937;80;26569;-72
2022/09/26 09:54:55;;;;;;;1.32;0.90;;;;;;;;;;1769344;80;26279;-72
2022/09/26 09:57:24;;;;;;;0.98;0.88;;;;;;;;;;1769843;80;26254;-67
2022/09/26 09:59:59;;;;;;;1.10;1.00;;;;;;;;;;1768156;80;26252;-67
2022/09/26 10:02:31;;;;;;;0.80;0.80;;;;;;;;;;1793265;80;26237;-58
2022/09/26 10:04:59;;;;;;;1.95;0.82;;;;;;;;;;1771158;78;26354;-68
2022/09/26 10:07:27;;;;;;;2.47;0.90;;;;;;;;;;1792165;78;26419;-57
2022/09/26 10:09:54;;;;;;;1.07;1.00;;;;;;;;;;1772079;80;26783;-58
2022/09/26 10:12:29;;;;;;;0.80;0.80;;;;;;;;;;1794088;80;26297;-66
2022/09/26 10:14:54;;;;;;;0.80;0.80;;;;;;;;;;1783072;80;26693;-67
2022/09/26 10:17:22;;;;;;;1.95;0.90;;;;;;;;;;1770094;80;26311;-70
2022/09/26 10:19:50;;;;;;;0.80;0.80;;;;;;;;;;1787232;78;26297;-66
2022/09/26 10:22:36;;;;;;;0.90;0.90;;;;;;;;;;1795119;80;26296;-67
2022/09/26 10:25:04;;;;;;;0.90;0.78;;;;;;;;;;1786517;78;26765;-68
2022/09/26 10:27:36;;;;;;;0.80;0.80;;;;;;;;;;1756001;80;26681;-68
2022/09/26 10:30:06;;;;;;;0.85;0.85;;;;;;;;;;1776915;80;27425;-65
2022/09/26 10:32:34;;;;;;;0.90;0.90;;;;;;;;;;1787819;79;26385;-63
2022/09/26 10:35:18;;;;;;;0.85;0.85;;;;;;;;;;1778062;79;26305;-64
2022/09/26 10:37:50;;;;;;;0.90;0.90;;;;;;;;;;1776786;79;26344;-63
2022/09/26 10:43:20;;;;;;;1.10;0.80;;;;;;;;;;1767997;80;26843;-56
2022/09/26 10:45:56;;;;;;;0.90;0.90;;;;;;;;;;1742958;80;28406;-63
2022/09/26 10:48:22;;;;;;;0.90;0.90;;;;;;;;;;1749701;80;28564;-62
2022/09/26 10:50:51;;;;;;;0.90;0.90;;;;;;;;;;1755563;80;26374;-57
2022/09/26 10:53:21;;;;;;;0.90;0.90;;;;;;;;;;1758929;80;26332;-60
2022/09/26 10:55:50;;;;;;;0.90;0.90;;;;;;;;;;1758924;80;26372;-60
2022/09/26 10:58:22;;;;;;;0.90;0.90;;;;;;;;;;1768871;80;26398;-63
2022/09/26 11:00:49;;;;;;;0.90;0.90;;;;;;;;;;1777305;80;26749;-62
2022/09/26 11:03:19;;;;;;;0.80;0.80;;;;;;;;;;1781954;80;26413;-60
2022/09/26 11:05:59;;;;;;;0.93;0.93;;;;;;;;;;1782863;79;26324;-60
2022/09/26 11:08:27;;;;;;;1.00;1.00;;;;;;;;;;1761382;81;26666;-65
2022/09/26 11:10:56;;;;;;;1.00;1.00;;;;;;;;;;1718846;83;26916;-64
2022/09/26 11:13:30;;;;;;;1.00;1.00;;;;;;;;;;1725597;82;26358;-73
2022/09/26 11:16:10;;;;;;;1.00;1.00;;;;;;;;;;1696019;84;26629;-61
2022/09/26 11:18:39;;;;;;;0.90;0.90;;;;;;;;;;1725580;81;26334;-61
2022/09/26 11:21:08;;;;;;;0.88;0.88;;;;;;;;;;1753570;80;26303;-60
2022/09/26 11:23:40;;;;;;;2.05;1.00;;;;;;;;;;1755247;80;26349;-62
2022/09/26 11:26:26;;;;;;;0.90;0.90;;;;;;;;;;1743872;81;26790;-61
2022/09/26 11:28:56;;;;;;;0.90;0.90;;;;;;;;;;1746908;82;26901;-59
2022/09/26 11:31:25;;;;;;;1.10;1.10;;;;;;;;;;1755305;81;26380;-60
2022/09/26 11:33:53;;;;;;;0.90;0.90;;;;;;;;;;1754886;80;26286;-59
2022/09/26 11:36:34;;;;;;;1.00;1.00;;;;;;;;;;1754981;80;26322;-61
2022/09/26 11:39:15;;;;;;;0.82;0.82;;;;;;;;;;1758404;80;26361;-60
2022/09/26 11:41:44;;;;;;;1.00;1.00;;;;;;;;;;1759212;80;26263;-60
2022/09/26 11:44:28;;;;;;;0.95;0.95;;;;;;;;;;1751028;81;26336;-60
2022/09/26 11:46:57;;;;;;;1.00;1.00;;;;;;;;;;1755134;82;26334;-62
2022/09/26 11:49:35;;;;;;;1.00;0.93;;;;;;;;;;1744059;81;28429;-63
2022/09/26 11:52:11;;;;;;;1.57;0.98;;;;;;;;;;1762651;80;26282;-59
2022/09/26 11:54:44;;;;;;;0.90;0.90;;;;;;;;;;1754263;82;26310;-61
2022/09/26 11:57:13;;;;;;;0.88;0.88;;;;;;;;;;1772386;80;26787;-61
2022/09/26 11:59:58;;;;;;;1.00;1.00;;;;;;;;;;1766173;80;26341;-59
2022/09/26 12:02:33;;;;;;;1.00;1.00;;;;;;;;;;1780305;80;26403;-59
2022/09/26 12:05:18;;;;;;;1.10;1.10;;;;;;;;;;1776134;80;26307;-60
2022/09/26 12:07:47;;;;;;;0.98;0.98;;;;;;;;;;1780765;80;26336;-61
2022/09/26 12:10:32;;;;;;;1.07;1.07;;;;;;;;;;1780641;80;26267;-59
2022/09/26 12:13:07;;;;;;;0.98;0.98;;;;;;;;;;1776945;80;26819;-59
2022/09/26 12:15:39;;;;;;;0.90;0.90;;;;;;;;;;1781766;80;26330;-59
2022/09/26 12:18:12;;;;;;;1.10;1.10;;;;;;;;;;1776798;80;26276;-58
2022/09/26 12:20:55;;;;;;;0.98;0.98;;;;;;;;;;1780818;80;26275;-57
2022/09/26 12:23:26;;;;;;;1.02;1.02;;;;;;;;;;1775873;80;27447;-58
2022/09/26 12:25:55;;;;;;;0.90;0.90;;;;;;;;;;1781160;80;26355;-57
2022/09/26 12:28:40;;;;;;;0.90;0.90;;;;;;;;;;1781994;80;26366;-57
2022/09/26 12:31:09;;;;;;;1.00;1.00;;;;;;;;;;1780041;80;25770;-58
2022/09/26 12:33:38;;;;;;;0.90;0.90;;;;;;;;;;1780630;80;26278;-58
2022/09/26 12:36:07;;;;;;;1.00;1.00;;;;;;;;;;1780377;80;26333;-57
2022/09/26 12:38:39;;;;;;;1.00;1.00;;;;;;;;;;1781053;79;26391;-58
2022/09/26 12:41:13;;;;;;;1.00;1.00;;;;;;;;;;1782037;80;26369;-57
2022/09/26 12:43:45;;;;;;;1.00;1.00;;;;;;;;;;1781400;80;26332;-57
2022/09/26 12:46:23;;;;;;;1.00;1.00;;;;;;;;;;1781457;80;26287;-58
2022/09/26 12:49:07;;;;;;;0.82;0.82;;;;;;;;;;1780533;80;26394;-58
2022/09/26 12:51:41;;;;;;;1.17;1.17;;;;;;;;;;1781370;80;26365;-58
2022/09/26 12:54:10;;;;;;;1.00;1.00;;;;;;;;;;1781391;79;26280;-58
2022/09/26 12:56:46;;;;;;;1.07;1.07;;;;;;;;;;1782284;79;26307;-57
2022/09/26 12:59:31;;;;;;;1.00;1.00;;;;;;;;;;1781059;80;26595;-57
2022/09/26 13:02:01;;;;;;;0.90;0.90;;;;;;;;;;1781866;80;26300;-56
2022/09/26 13:04:30;;;;;;;0.90;0.90;;;;;;;;;;1780993;80;26339;-58
2022/09/26 13:07:02;;;;;;;1.00;1.00;;;;;;;;;;1780678;80;26276;-57
2022/09/26 13:09:31;;;;;;;1.00;1.00;;;;;;;;;;1780586;80;26268;-57
2022/09/26 13:12:17;;;;;;;0.90;0.90;;;;;;;;;;1780761;80;26284;-58
2022/09/26 13:14:56;;;;;;;1.00;1.00;;;;;;;;;;1779824;80;26328;-56
2022/09/26 13:17:34;;;;;;;0.98;0.98;;;;;;;;;;1781139;80;26240;-58
2022/09/26 13:20:03;;;;;;;0.98;0.98;;;;;;;;;;1780080;80;26538;-58
2022/09/26 13:22:33;;;;;;;0.88;0.88;;;;;;;;;;1777606;80;26407;-56
2022/09/26 13:25:16;;;;;;;1.00;1.00;;;;;;;;;;1771655;80;26534;-55
2022/09/26 13:27:50;;;;;;;0.98;0.98;;;;;;;;;;1778424;80;26481;-57
2022/09/26 13:30:21;;;;;;;0.90;0.90;;;;;;;;;;1778406;79;26264;-55
2022/09/26 13:33:07;;;;;;;0.88;0.88;;;;;;;;;;1778763;80;26853;-57
2022/09/26 13:35:38;;;;;;;0.85;0.85;;;;;;;;;;1778235;80;26396;-57
2022/09/26 13:38:19;;;;;;;0.90;0.90;;;;;;;;;;1773130;80;26428;-56
2022/09/26 13:40:50;;;;;;;0.90;0.90;;;;;;;;;;1778608;80;26319;-56
2022/09/26 13:43:21;;;;;;;1.05;0.98;;;;;;;;;;1777300;79;26784;-57
2022/09/26 13:45:50;;;;;;;14.70;12.82;;;;;;;;;;1716330;80;26339;-65
2022/09/26 13:48:21;;;;;;;45.67;37.42;;;;;;;;;;1766595;79;26330;-63
2022/09/26 13:50:54;;;;;;;55.58;45.55;;;;;;;;;;1772357;80;26278;-62
2022/09/26 13:53:23;;;;;;;64.00;49.40;;;;;;;;;;1780576;80;26774;-64
2022/09/26 13:56:08;;;;;;;76.45;57.90;;;;;;;;;;1781997;80;27311;-60
2022/09/26 13:58:39;;;;;;;84.17;64.53;;;;;;;;;;1779100;79;26381;-61
2022/09/26 14:01:07;;;;;;;97.82;73.47;;;;;;;;;;1782540;79;26358;-60
2022/09/26 14:03:37;;;;;;;94.72;71.50;;;;;;;;;;1776861;80;26299;-60
2022/09/26 14:06:08;;;;;;;125.33;95.30;;;;;;;;;;1781716;80;26311;-59
2022/09/26 14:11:29;;;;;;;34.00;28.30;;;;;;;;;;1752824;82;26318;-58
2022/09/26 14:14:20;;;;;;;28.73;22.42;;;;;;;;;;1751977;82;26271;-58
2022/09/26 14:16:51;;;;;;;30.75;25.10;;;;;;;;;;1752073;82;26286;-61
2022/09/26 14:19:35;;;;;;;30.45;22.80;;;;;;;;;;1752255;82;26211;-63
2022/09/26 14:22:04;;;;;;;122.10;91.28;;;;;;;;;;1751246;81;26333;-60
2022/09/26 14:24:40;;;;;;;119.37;89.37;;;;;;;;;;1754348;81;26353;-62
2022/09/26 14:27:11;;;;;;;110.92;81.85;;;;;;;;;;1753996;82;26326;-62
2022/09/26 14:29:47;;;;;;;137.97;102.00;;;;;;;;;;1753349;82;26734;-62
2022/09/26 14:32:15;;;;;;;148.90;110.55;;;;;;;;;;1753062;82;26294;-62
2022/09/26 14:34:47;;;;;;;153.68;114.92;;;;;;;;;;1749402;82;26310;-64
2022/09/26 14:37:24;;;;;;;167.93;122.92;;;;;;;;;;1752952;81;26750;-69
2022/09/26 14:39:59;;;;;;;153.40;112.52;;;;;;;;;;1753060;82;26318;-65
2022/09/26 14:42:31;;;;;;;162.90;120.70;;;;;;;;;;1752653;81;26274;-71
2022/09/26 14:44:59;;;;;;;189.07;131.93;;;;;;;;;;1753202;80;26287;-70
2022/09/26 14:47:28;;;;;;;112.52;81.95;;;;;;;;;;1751515;82;26679;-69
2022/09/26 14:49:59;;;;;;;85.47;60.03;;;;;;;;;;1752025;81;26271;-65
2022/09/26 14:52:27;;;;;;;148.30;109.60;;;;;;;;;;1752979;81;26388;-71
2022/09/26 14:54:57;;;;;;;216.48;152.15;;;;;;;;;;1754038;81;26270;-63
2022/09/26 14:57:27;;;;;;;226.20;157.85;;;;;;;;;;1750358;82;26273;-71
2022/09/26 14:59:55;;;;;;;122.47;89.13;;;;;;;;;;1753679;81;26816;-70
2022/09/26 15:02:25;;;;;;;115.10;81.85;;;;;;;;;;1753075;81;26286;-71
2022/09/26 15:04:54;;;;;;;217.00;150.70;;;;;;;;;;1750135;81;26342;-69
2022/09/26 15:07:23;;;;;;;210.28;151.12;;;;;;;;;;1751489;81;26349;-67
2022/09/26 15:09:58;;;;;;;110.78;79.75;;;;;;;;;;1751916;81;26384;-69
2022/09/26 15:12:30;;;;;;;134.70;97.17;;;;;;;;;;1748998;82;26816;-68
2022/09/26 15:15:09;;;;;;;224.35;159.78;;;;;;;;;;1745662;82;26344;-65